sensor_id;sensor_type;location;lat;lon;timestamp;P1;durP1;ratioP1;P2;durP2;ratioP2
7503;SDS011;3793;48.136;11.536;2022-09-09T00:01:12;1.98;;;1.15;;
7503;SDS011;3793;48.136;11.536;2022-09-09T00:03:43;2.00;;;1.30;;
7503;SDS011;3793;48.136;11.536;2022-09-09T00:06:14;2.92;;;1.30;;
7503;SDS011;3793;48.136;11.536;2022-09-09T00:08:45;2.47;;;1.13;;
7503;SDS011;3793;48.136;11.536;2022-09-09T00:11:20;1.55;;;1.20;;
7503;SDS011;3793;48.136;11.536;2022-09-09T00:13:51;2.38;;;1.23;;
7503;SDS011;3793;48.136;11.536;2022-09-09T00:16:20;1.88;;;1.35;;
7503;SDS011;3793;48.136;11.536;2022-09-09T00:18:51;1.67;;;1.30;;
7503;SDS011;3793;48.136;11.536;2022-09-09T00:21:20;4.05;;;1.40;;
7503;SDS011;3793;48.136;11.536;2022-09-09T00:23:50;3.33;;;1.45;;
7503;SDS011;3793;48.136;11.536;2022-09-09T00:26:20;3.72;;;1.55;;
7503;SDS011;3793;48.136;11.536;2022-09-09T00:28:49;2.78;;;1.40;;
7503;SDS011;3793;48.136;11.536;2022-09-09T00:31:20;1.45;;;1.08;;
7503;SDS011;3793;48.136;11.536;2022-09-09T00:33:49;3.50;;;1.50;;
7503;SDS011;3793;48.136;11.536;2022-09-09T00:36:17;1.58;;;1.30;;
7503;SDS011;3793;48.136;11.536;2022-09-09T00:38:45;2.10;;;1.45;;
7503;SDS011;3793;48.136;11.536;2022-09-09T00:41:16;3.67;;;1.58;;
7503;SDS011;3793;48.136;11.536;2022-09-09T00:43:46;1.20;;;1.10;;
7503;SDS011;3793;48.136;11.536;2022-09-09T00:49:04;2.63;;;1.35;;
7503;SDS011;3793;48.136;11.536;2022-09-09T00:51:37;1.67;;;1.20;;
7503;SDS011;3793;48.136;11.536;2022-09-09T00:54:14;2.38;;;1.02;;
7503;SDS011;3793;48.136;11.536;2022-09-09T00:56:47;5.97;;;1.45;;
7503;SDS011;3793;48.136;11.536;2022-09-09T00:59:28;1.48;;;1.38;;
7503;SDS011;3793;48.136;11.536;2022-09-09T01:02:01;1.50;;;1.27;;
7503;SDS011;3793;48.136;11.536;2022-09-09T01:04:29;2.43;;;1.20;;
7503;SDS011;3793;48.136;11.536;2022-09-09T01:07:01;2.83;;;1.40;;
7503;SDS011;3793;48.136;11.536;2022-09-09T01:09:29;1.70;;;1.47;;
7503;SDS011;3793;48.136;11.536;2022-09-09T01:12:02;2.97;;;1.97;;
7503;SDS011;3793;48.136;11.536;2022-09-09T01:14:39;2.60;;;1.30;;
7503;SDS011;3793;48.136;11.536;2022-09-09T01:17:08;1.83;;;1.40;;
7503;SDS011;3793;48.136;11.536;2022-09-09T01:19:40;3.47;;;1.80;;
7503;SDS011;3793;48.136;11.536;2022-09-09T01:22:13;1.83;;;1.50;;
7503;SDS011;3793;48.136;11.536;2022-09-09T01:24:42;3.88;;;1.60;;
7503;SDS011;3793;48.136;11.536;2022-09-09T01:27:11;1.30;;;1.20;;
7503;SDS011;3793;48.136;11.536;2022-09-09T01:29:40;1.43;;;1.33;;
7503;SDS011;3793;48.136;11.536;2022-09-09T01:34:48;2.93;;;1.30;;
7503;SDS011;3793;48.136;11.536;2022-09-09T01:37:15;1.40;;;1.30;;
7503;SDS011;3793;48.136;11.536;2022-09-09T01:39:42;3.00;;;1.60;;
7503;SDS011;3793;48.136;11.536;2022-09-09T01:42:10;2.83;;;1.47;;
7503;SDS011;3793;48.136;11.536;2022-09-09T01:44:39;2.50;;;1.67;;
7503;SDS011;3793;48.136;11.536;2022-09-09T01:47:06;2.13;;;1.60;;
7503;SDS011;3793;48.136;11.536;2022-09-09T01:49:34;5.00;;;1.57;;
7503;SDS011;3793;48.136;11.536;2022-09-09T01:52:01;3.00;;;1.80;;
7503;SDS011;3793;48.136;11.536;2022-09-09T01:54:29;6.63;;;2.00;;
7503;SDS011;3793;48.136;11.536;2022-09-09T01:56:58;4.20;;;2.10;;
7503;SDS011;3793;48.136;11.536;2022-09-09T01:59:34;2.95;;;1.88;;
7503;SDS011;3793;48.136;11.536;2022-09-09T02:02:07;2.97;;;2.10;;
7503;SDS011;3793;48.136;11.536;2022-09-09T02:04:39;3.27;;;1.97;;
7503;SDS011;3793;48.136;11.536;2022-09-09T02:07:09;3.50;;;2.17;;
7503;SDS011;3793;48.136;11.536;2022-09-09T02:09:39;3.03;;;2.10;;
7503;SDS011;3793;48.136;11.536;2022-09-09T02:12:08;3.63;;;2.03;;
7503;SDS011;3793;48.136;11.536;2022-09-09T02:14:38;5.27;;;1.93;;
7503;SDS011;3793;48.136;11.536;2022-09-09T02:17:09;4.50;;;1.93;;
7503;SDS011;3793;48.136;11.536;2022-09-09T02:19:36;3.70;;;1.93;;
7503;SDS011;3793;48.136;11.536;2022-09-09T02:22:04;2.90;;;1.50;;
7503;SDS011;3793;48.136;11.536;2022-09-09T02:24:31;3.27;;;2.00;;
7503;SDS011;3793;48.136;11.536;2022-09-09T02:26:59;4.40;;;1.97;;
7503;SDS011;3793;48.136;11.536;2022-09-09T02:29:29;2.93;;;1.80;;
7503;SDS011;3793;48.136;11.536;2022-09-09T02:31:58;3.37;;;1.97;;
7503;SDS011;3793;48.136;11.536;2022-09-09T02:34:29;2.20;;;1.53;;
7503;SDS011;3793;48.136;11.536;2022-09-09T02:36:57;1.50;;;1.23;;
7503;SDS011;3793;48.136;11.536;2022-09-09T02:39:24;4.83;;;1.47;;
7503;SDS011;3793;48.136;11.536;2022-09-09T02:41:51;3.03;;;1.50;;
7503;SDS011;3793;48.136;11.536;2022-09-09T02:44:18;3.37;;;1.40;;
7503;SDS011;3793;48.136;11.536;2022-09-09T02:49:28;2.17;;;1.30;;
7503;SDS011;3793;48.136;11.536;2022-09-09T02:51:59;2.07;;;1.63;;
7503;SDS011;3793;48.136;11.536;2022-09-09T02:54:27;3.17;;;1.60;;
7503;SDS011;3793;48.136;11.536;2022-09-09T02:56:56;4.88;;;1.80;;
7503;SDS011;3793;48.136;11.536;2022-09-09T02:59:26;4.20;;;1.90;;
7503;SDS011;3793;48.136;11.536;2022-09-09T03:01:54;3.07;;;1.90;;
7503;SDS011;3793;48.136;11.536;2022-09-09T03:04:21;2.13;;;1.33;;
7503;SDS011;3793;48.136;11.536;2022-09-09T03:06:50;2.10;;;1.50;;
7503;SDS011;3793;48.136;11.536;2022-09-09T03:09:18;3.60;;;2.10;;
7503;SDS011;3793;48.136;11.536;2022-09-09T03:11:45;2.70;;;1.43;;
7503;SDS011;3793;48.136;11.536;2022-09-09T03:14:12;2.37;;;1.70;;
7503;SDS011;3793;48.136;11.536;2022-09-09T03:16:38;4.50;;;1.50;;
7503;SDS011;3793;48.136;11.536;2022-09-09T03:19:05;1.73;;;1.50;;
7503;SDS011;3793;48.136;11.536;2022-09-09T03:21:32;1.50;;;1.40;;
7503;SDS011;3793;48.136;11.536;2022-09-09T03:23:58;2.00;;;1.23;;
7503;SDS011;3793;48.136;11.536;2022-09-09T03:26:27;3.33;;;1.50;;
7503;SDS011;3793;48.136;11.536;2022-09-09T03:28:53;2.50;;;1.30;;
7503;SDS011;3793;48.136;11.536;2022-09-09T03:31:20;1.80;;;1.53;;
7503;SDS011;3793;48.136;11.536;2022-09-09T03:33:47;1.37;;;1.13;;
7503;SDS011;3793;48.136;11.536;2022-09-09T03:36:14;1.73;;;1.40;;
7503;SDS011;3793;48.136;11.536;2022-09-09T03:38:40;2.03;;;1.30;;
7503;SDS011;3793;48.136;11.536;2022-09-09T03:41:07;2.93;;;1.40;;
7503;SDS011;3793;48.136;11.536;2022-09-09T03:43:36;2.30;;;1.50;;
7503;SDS011;3793;48.136;11.536;2022-09-09T03:46:02;2.97;;;1.63;;
7503;SDS011;3793;48.136;11.536;2022-09-09T03:48:29;1.30;;;1.20;;
7503;SDS011;3793;48.136;11.536;2022-09-09T03:50:56;4.33;;;1.70;;
7503;SDS011;3793;48.136;11.536;2022-09-09T03:53:25;1.73;;;1.20;;
7503;SDS011;3793;48.136;11.536;2022-09-09T03:55:52;1.47;;;1.33;;
7503;SDS011;3793;48.136;11.536;2022-09-09T03:58:20;3.10;;;1.40;;
7503;SDS011;3793;48.136;11.536;2022-09-09T04:01:00;3.63;;;1.40;;
7503;SDS011;3793;48.136;11.536;2022-09-09T04:03:27;2.37;;;1.20;;
7503;SDS011;3793;48.136;11.536;2022-09-09T04:05:54;1.50;;;1.37;;
7503;SDS011;3793;48.136;11.536;2022-09-09T04:08:21;2.70;;;1.40;;
7503;SDS011;3793;48.136;11.536;2022-09-09T04:10:50;2.17;;;1.30;;
7503;SDS011;3793;48.136;11.536;2022-09-09T04:13:17;3.80;;;1.50;;
7503;SDS011;3793;48.136;11.536;2022-09-09T04:15:48;2.90;;;1.50;;
7503;SDS011;3793;48.136;11.536;2022-09-09T04:18:18;3.73;;;1.50;;
7503;SDS011;3793;48.136;11.536;2022-09-09T04:20:45;1.53;;;1.33;;
7503;SDS011;3793;48.136;11.536;2022-09-09T04:23:12;1.83;;;1.40;;
7503;SDS011;3793;48.136;11.536;2022-09-09T04:25:42;2.50;;;1.40;;
7503;SDS011;3793;48.136;11.536;2022-09-09T04:28:10;2.73;;;1.60;;
7503;SDS011;3793;48.136;11.536;2022-09-09T04:30:36;3.30;;;1.60;;
7503;SDS011;3793;48.136;11.536;2022-09-09T04:33:04;1.73;;;1.40;;
7503;SDS011;3793;48.136;11.536;2022-09-09T04:35:33;2.53;;;1.63;;
7503;SDS011;3793;48.136;11.536;2022-09-09T04:38:00;3.23;;;1.60;;
7503;SDS011;3793;48.136;11.536;2022-09-09T04:40:28;1.80;;;1.57;;
7503;SDS011;3793;48.136;11.536;2022-09-09T04:42:57;3.53;;;1.40;;
7503;SDS011;3793;48.136;11.536;2022-09-09T04:45:37;1.60;;;1.50;;
7503;SDS011;3793;48.136;11.536;2022-09-09T04:48:05;3.50;;;1.50;;
7503;SDS011;3793;48.136;11.536;2022-09-09T04:50:34;3.07;;;1.60;;
7503;SDS011;3793;48.136;11.536;2022-09-09T04:53:00;3.13;;;1.73;;
7503;SDS011;3793;48.136;11.536;2022-09-09T04:55:27;2.07;;;1.53;;
7503;SDS011;3793;48.136;11.536;2022-09-09T04:57:55;1.80;;;1.70;;
7503;SDS011;3793;48.136;11.536;2022-09-09T05:00:22;4.10;;;2.20;;
7503;SDS011;3793;48.136;11.536;2022-09-09T05:02:49;3.70;;;2.10;;
7503;SDS011;3793;48.136;11.536;2022-09-09T05:05:16;2.20;;;2.00;;
7503;SDS011;3793;48.136;11.536;2022-09-09T05:07:45;3.50;;;1.80;;
7503;SDS011;3793;48.136;11.536;2022-09-09T05:10:12;4.53;;;1.97;;
7503;SDS011;3793;48.136;11.536;2022-09-09T05:12:40;2.47;;;1.53;;
7503;SDS011;3793;48.136;11.536;2022-09-09T05:15:07;2.73;;;2.00;;
7503;SDS011;3793;48.136;11.536;2022-09-09T05:17:34;2.77;;;1.80;;
7503;SDS011;3793;48.136;11.536;2022-09-09T05:20:01;3.93;;;1.70;;
7503;SDS011;3793;48.136;11.536;2022-09-09T05:22:29;2.67;;;1.87;;
7503;SDS011;3793;48.136;11.536;2022-09-09T05:24:58;2.80;;;1.70;;
7503;SDS011;3793;48.136;11.536;2022-09-09T05:27:25;3.07;;;1.80;;
7503;SDS011;3793;48.136;11.536;2022-09-09T05:29:52;4.83;;;1.50;;
7503;SDS011;3793;48.136;11.536;2022-09-09T05:32:19;4.10;;;1.53;;
7503;SDS011;3793;48.136;11.536;2022-09-09T05:34:45;4.27;;;1.77;;
7503;SDS011;3793;48.136;11.536;2022-09-09T05:37:12;2.97;;;1.70;;
7503;SDS011;3793;48.136;11.536;2022-09-09T05:39:39;6.27;;;1.97;;
7503;SDS011;3793;48.136;11.536;2022-09-09T05:42:16;4.83;;;1.63;;
7503;SDS011;3793;48.136;11.536;2022-09-09T05:44:56;5.03;;;1.90;;
7503;SDS011;3793;48.136;11.536;2022-09-09T05:47:23;4.80;;;1.90;;
7503;SDS011;3793;48.136;11.536;2022-09-09T05:49:52;2.80;;;1.20;;
7503;SDS011;3793;48.136;11.536;2022-09-09T05:52:19;3.23;;;1.50;;
7503;SDS011;3793;48.136;11.536;2022-09-09T05:54:45;5.33;;;1.97;;
7503;SDS011;3793;48.136;11.536;2022-09-09T05:57:14;4.10;;;1.80;;
7503;SDS011;3793;48.136;11.536;2022-09-09T05:59:41;2.57;;;1.80;;
7503;SDS011;3793;48.136;11.536;2022-09-09T06:02:11;1.93;;;1.50;;
7503;SDS011;3793;48.136;11.536;2022-09-09T06:04:39;1.97;;;1.53;;
7503;SDS011;3793;48.136;11.536;2022-09-09T06:07:09;2.97;;;1.57;;
7503;SDS011;3793;48.136;11.536;2022-09-09T06:09:42;3.10;;;1.63;;
7503;SDS011;3793;48.136;11.536;2022-09-09T06:12:09;4.73;;;1.70;;
7503;SDS011;3793;48.136;11.536;2022-09-09T06:14:38;5.20;;;1.77;;
7503;SDS011;3793;48.136;11.536;2022-09-09T06:17:04;4.83;;;1.73;;
7503;SDS011;3793;48.136;11.536;2022-09-09T06:19:31;5.20;;;1.60;;
7503;SDS011;3793;48.136;11.536;2022-09-09T06:21:58;3.33;;;1.70;;
7503;SDS011;3793;48.136;11.536;2022-09-09T06:24:25;2.87;;;1.57;;
7503;SDS011;3793;48.136;11.536;2022-09-09T06:26:52;2.60;;;1.42;;
7503;SDS011;3793;48.136;11.536;2022-09-09T06:29:19;3.63;;;1.20;;
7503;SDS011;3793;48.136;11.536;2022-09-09T06:31:50;2.75;;;1.30;;
7503;SDS011;3793;48.136;11.536;2022-09-09T06:34:27;2.17;;;1.50;;
7503;SDS011;3793;48.136;11.536;2022-09-09T06:36:54;3.13;;;1.80;;
7503;SDS011;3793;48.136;11.536;2022-09-09T06:39:23;2.70;;;1.60;;
7503;SDS011;3793;48.136;11.536;2022-09-09T06:41:50;5.72;;;4.05;;
7503;SDS011;3793;48.136;11.536;2022-09-09T06:44:18;3.13;;;2.43;;
7503;SDS011;3793;48.136;11.536;2022-09-09T06:46:45;2.08;;;1.48;;
7503;SDS011;3793;48.136;11.536;2022-09-09T06:49:14;2.13;;;1.30;;
7503;SDS011;3793;48.136;11.536;2022-09-09T06:51:41;3.97;;;1.30;;
7503;SDS011;3793;48.136;11.536;2022-09-09T06:54:08;2.75;;;1.50;;
7503;SDS011;3793;48.136;11.536;2022-09-09T06:56:36;2.83;;;1.30;;
7503;SDS011;3793;48.136;11.536;2022-09-09T06:59:06;1.92;;;1.48;;
7503;SDS011;3793;48.136;11.536;2022-09-09T07:01:33;2.33;;;1.42;;
7503;SDS011;3793;48.136;11.536;2022-09-09T07:04:00;1.33;;;1.20;;
7503;SDS011;3793;48.136;11.536;2022-09-09T07:06:31;1.60;;;1.50;;
7503;SDS011;3793;48.136;11.536;2022-09-09T07:09:00;1.67;;;1.42;;
7503;SDS011;3793;48.136;11.536;2022-09-09T07:11:29;2.13;;;1.30;;
7503;SDS011;3793;48.136;11.536;2022-09-09T07:13:56;3.10;;;1.50;;
7503;SDS011;3793;48.136;11.536;2022-09-09T07:16:24;4.80;;;1.63;;
7503;SDS011;3793;48.136;11.536;2022-09-09T07:18:51;1.67;;;1.20;;
7503;SDS011;3793;48.136;11.536;2022-09-09T07:21:18;1.70;;;1.15;;
7503;SDS011;3793;48.136;11.536;2022-09-09T07:23:47;2.90;;;1.60;;
7503;SDS011;3793;48.136;11.536;2022-09-09T07:26:14;2.20;;;1.25;;
7503;SDS011;3793;48.136;11.536;2022-09-09T07:28:42;1.88;;;1.00;;
7503;SDS011;3793;48.136;11.536;2022-09-09T07:31:12;6.45;;;1.30;;
7503;SDS011;3793;48.136;11.536;2022-09-09T07:33:41;6.60;;;1.63;;
7503;SDS011;3793;48.136;11.536;2022-09-09T07:36:09;3.53;;;1.70;;
7503;SDS011;3793;48.136;11.536;2022-09-09T07:38:39;4.75;;;1.30;;
7503;SDS011;3793;48.136;11.536;2022-09-09T07:41:14;7.43;;;1.73;;
7503;SDS011;3793;48.136;11.536;2022-09-09T07:43:42;2.38;;;1.20;;
7503;SDS011;3793;48.136;11.536;2022-09-09T07:46:10;4.63;;;1.27;;
7503;SDS011;3793;48.136;11.536;2022-09-09T07:48:37;2.95;;;1.30;;
7503;SDS011;3793;48.136;11.536;2022-09-09T07:51:05;3.08;;;0.93;;
7503;SDS011;3793;48.136;11.536;2022-09-09T07:53:32;2.25;;;1.10;;
7503;SDS011;3793;48.136;11.536;2022-09-09T07:56:03;1.48;;;1.08;;
7503;SDS011;3793;48.136;11.536;2022-09-09T07:58:32;1.52;;;1.30;;
7503;SDS011;3793;48.136;11.536;2022-09-09T08:36:27;3.05;;;1.40;;
7503;SDS011;3793;48.136;11.536;2022-09-09T08:38:54;1.25;;;1.00;;
7503;SDS011;3793;48.136;11.536;2022-09-09T08:41:35;3.40;;;1.13;;
7503;SDS011;3793;48.136;11.536;2022-09-09T08:44:04;5.57;;;1.27;;
7503;SDS011;3793;48.136;11.536;2022-09-09T08:46:35;1.98;;;1.40;;
7503;SDS011;3793;48.136;11.536;2022-09-09T08:49:11;3.47;;;1.42;;
7503;SDS011;3793;48.136;11.536;2022-09-09T08:51:43;2.30;;;1.42;;
7503;SDS011;3793;48.136;11.536;2022-09-09T08:54:10;4.28;;;1.45;;
7503;SDS011;3793;48.136;11.536;2022-09-09T08:56:37;2.40;;;1.30;;
7503;SDS011;3793;48.136;11.536;2022-09-09T09:10:34;3.25;;;1.17;;
7503;SDS011;3793;48.136;11.536;2022-09-09T09:13:06;2.15;;;1.02;;
7503;SDS011;3793;48.136;11.536;2022-09-09T09:15:36;1.73;;;1.20;;
7503;SDS011;3793;48.136;11.536;2022-09-09T09:18:04;1.88;;;0.90;;
7503;SDS011;3793;48.136;11.536;2022-09-09T09:20:33;3.50;;;1.10;;
7503;SDS011;3793;48.136;11.536;2022-09-09T09:23:05;3.05;;;0.80;;
7503;SDS011;3793;48.136;11.536;2022-09-09T09:25:34;3.17;;;1.00;;
7503;SDS011;3793;48.136;11.536;2022-09-09T09:28:03;5.95;;;1.35;;
7503;SDS011;3793;48.136;11.536;2022-09-09T09:30:34;2.20;;;1.25;;
7503;SDS011;3793;48.136;11.536;2022-09-09T09:33:02;1.83;;;1.25;;
7503;SDS011;3793;48.136;11.536;2022-09-09T09:35:30;4.78;;;1.50;;
7503;SDS011;3793;48.136;11.536;2022-09-09T09:37:57;2.47;;;1.30;;
7503;SDS011;3793;48.136;11.536;2022-09-09T09:40:27;1.95;;;1.35;;
7503;SDS011;3793;48.136;11.536;2022-09-09T09:42:54;1.67;;;1.20;;
7503;SDS011;3793;48.136;11.536;2022-09-09T09:45:25;2.17;;;1.25;;
7503;SDS011;3793;48.136;11.536;2022-09-09T09:47:57;2.63;;;1.17;;
7503;SDS011;3793;48.136;11.536;2022-09-09T09:50:24;1.20;;;1.02;;
7503;SDS011;3793;48.136;11.536;2022-09-09T09:52:54;4.70;;;1.55;;
7503;SDS011;3793;48.136;11.536;2022-09-09T09:55:22;2.95;;;1.65;;
7503;SDS011;3793;48.136;11.536;2022-09-09T09:57:52;2.67;;;1.60;;
7503;SDS011;3793;48.136;11.536;2022-09-09T10:00:20;3.67;;;1.25;;
7503;SDS011;3793;48.136;11.536;2022-09-09T10:02:47;2.95;;;1.50;;
7503;SDS011;3793;48.136;11.536;2022-09-09T10:05:14;3.33;;;1.42;;
7503;SDS011;3793;48.136;11.536;2022-09-09T10:07:42;2.58;;;1.65;;
7503;SDS011;3793;48.136;11.536;2022-09-09T10:10:13;2.50;;;1.60;;
7503;SDS011;3793;48.136;11.536;2022-09-09T10:12:44;3.55;;;1.83;;
7503;SDS011;3793;48.136;11.536;2022-09-09T10:15:20;3.65;;;1.58;;
7503;SDS011;3793;48.136;11.536;2022-09-09T10:17:52;3.72;;;1.55;;
7503;SDS011;3793;48.136;11.536;2022-09-09T10:20:25;1.83;;;1.50;;
7503;SDS011;3793;48.136;11.536;2022-09-09T10:23:00;3.85;;;1.75;;
7503;SDS011;3793;48.136;11.536;2022-09-09T10:25:35;2.15;;;1.42;;
7503;SDS011;3793;48.136;11.536;2022-09-09T10:30:59;2.88;;;1.40;;
7503;SDS011;3793;48.136;11.536;2022-09-09T10:33:35;2.38;;;1.83;;
7503;SDS011;3793;48.136;11.536;2022-09-09T10:36:07;1.90;;;1.35;;
7503;SDS011;3793;48.136;11.536;2022-09-09T10:38:38;3.03;;;1.55;;
7503;SDS011;3793;48.136;11.536;2022-09-09T10:41:12;2.13;;;1.25;;
7503;SDS011;3793;48.136;11.536;2022-09-09T10:43:45;1.52;;;1.13;;
7503;SDS011;3793;48.136;11.536;2022-09-09T10:46:15;2.45;;;1.00;;
7503;SDS011;3793;48.136;11.536;2022-09-09T10:48:49;1.73;;;0.93;;
7503;SDS011;3793;48.136;11.536;2022-09-09T10:51:23;3.15;;;1.38;;
7503;SDS011;3793;48.136;11.536;2022-09-09T10:53:52;3.50;;;1.17;;
7503;SDS011;3793;48.136;11.536;2022-09-09T10:56:20;3.13;;;1.27;;
7503;SDS011;3793;48.136;11.536;2022-09-09T10:58:49;2.47;;;1.00;;
7503;SDS011;3793;48.136;11.536;2022-09-09T11:01:20;2.90;;;1.10;;
7503;SDS011;3793;48.136;11.536;2022-09-09T11:03:50;2.35;;;1.05;;
7503;SDS011;3793;48.136;11.536;2022-09-09T11:06:19;1.83;;;0.82;;
7503;SDS011;3793;48.136;11.536;2022-09-09T11:08:46;2.72;;;1.13;;
7503;SDS011;3793;48.136;11.536;2022-09-09T11:11:15;2.33;;;1.45;;
7503;SDS011;3793;48.136;11.536;2022-09-09T11:13:45;1.77;;;1.20;;
7503;SDS011;3793;48.136;11.536;2022-09-09T11:16:16;1.33;;;1.17;;
7503;SDS011;3793;48.136;11.536;2022-09-09T11:18:52;1.90;;;1.15;;
7503;SDS011;3793;48.136;11.536;2022-09-09T11:21:23;1.40;;;1.30;;
7503;SDS011;3793;48.136;11.536;2022-09-09T11:23:52;2.47;;;1.05;;
7503;SDS011;3793;48.136;11.536;2022-09-09T11:26:21;2.05;;;0.85;;
7503;SDS011;3793;48.136;11.536;2022-09-09T11:28:54;2.17;;;0.95;;
7503;SDS011;3793;48.136;11.536;2022-09-09T11:31:33;1.92;;;0.88;;
7503;SDS011;3793;48.136;11.536;2022-09-09T11:34:12;1.30;;;1.15;;
7503;SDS011;3793;48.136;11.536;2022-09-09T11:36:48;1.85;;;1.08;;
7503;SDS011;3793;48.136;11.536;2022-09-09T11:42:07;2.25;;;1.00;;
7503;SDS011;3793;48.136;11.536;2022-09-09T11:44:34;2.05;;;0.80;;
7503;SDS011;3793;48.136;11.536;2022-09-09T11:47:00;1.83;;;0.90;;
7503;SDS011;3793;48.136;11.536;2022-09-09T11:49:29;1.90;;;1.10;;
7503;SDS011;3793;48.136;11.536;2022-09-09T11:51:56;1.27;;;0.68;;
7503;SDS011;3793;48.136;11.536;2022-09-09T11:54:28;1.50;;;0.88;;
7503;SDS011;3793;48.136;11.536;2022-09-09T11:56:55;1.42;;;1.00;;
7503;SDS011;3793;48.136;11.536;2022-09-09T11:59:23;1.65;;;1.20;;
7503;SDS011;3793;48.136;11.536;2022-09-09T12:01:50;1.67;;;0.88;;
7503;SDS011;3793;48.136;11.536;2022-09-09T12:04:33;2.55;;;0.70;;
7503;SDS011;3793;48.136;11.536;2022-09-09T12:07:02;1.67;;;1.02;;
7503;SDS011;3793;48.136;11.536;2022-09-09T12:09:35;1.92;;;1.05;;
7503;SDS011;3793;48.136;11.536;2022-09-09T12:12:05;1.73;;;0.80;;
7503;SDS011;3793;48.136;11.536;2022-09-09T12:14:36;1.65;;;0.50;;
7503;SDS011;3793;48.136;11.536;2022-09-09T12:17:10;1.08;;;0.70;;
7503;SDS011;3793;48.136;11.536;2022-09-09T12:19:45;1.10;;;0.90;;
7503;SDS011;3793;48.136;11.536;2022-09-09T12:22:14;1.02;;;0.65;;
7503;SDS011;3793;48.136;11.536;2022-09-09T12:24:46;2.70;;;1.08;;
7503;SDS011;3793;48.136;11.536;2022-09-09T12:27:15;1.63;;;1.15;;
7503;SDS011;3793;48.136;11.536;2022-09-09T12:29:46;2.03;;;0.82;;
7503;SDS011;3793;48.136;11.536;2022-09-09T12:32:17;2.28;;;1.05;;
7503;SDS011;3793;48.136;11.536;2022-09-09T12:34:48;1.58;;;1.00;;
7503;SDS011;3793;48.136;11.536;2022-09-09T12:37:17;3.47;;;0.70;;
7503;SDS011;3793;48.136;11.536;2022-09-09T12:39:48;0.60;;;0.60;;
7503;SDS011;3793;48.136;11.536;2022-09-09T12:42:16;1.67;;;1.20;;
7503;SDS011;3793;48.136;11.536;2022-09-09T12:44:50;2.15;;;0.95;;
7503;SDS011;3793;48.136;11.536;2022-09-09T12:47:17;2.53;;;0.80;;
7503;SDS011;3793;48.136;11.536;2022-09-09T12:49:44;1.00;;;0.77;;
7503;SDS011;3793;48.136;11.536;2022-09-09T12:52:14;1.13;;;0.57;;
7503;SDS011;3793;48.136;11.536;2022-09-09T12:54:43;2.33;;;1.05;;
7503;SDS011;3793;48.136;11.536;2022-09-09T12:57:12;0.95;;;0.77;;
7503;SDS011;3793;48.136;11.536;2022-09-09T12:59:39;1.98;;;0.80;;
7503;SDS011;3793;48.136;11.536;2022-09-09T13:02:11;0.98;;;0.70;;
7503;SDS011;3793;48.136;11.536;2022-09-09T13:04:42;1.27;;;0.90;;
7503;SDS011;3793;48.136;11.536;2022-09-09T13:07:10;1.88;;;1.13;;
7503;SDS011;3793;48.136;11.536;2022-09-09T13:09:39;1.55;;;1.10;;
7503;SDS011;3793;48.136;11.536;2022-09-09T13:12:06;1.17;;;0.82;;
7503;SDS011;3793;48.136;11.536;2022-09-09T13:14:38;1.90;;;1.00;;
7503;SDS011;3793;48.136;11.536;2022-09-09T13:17:05;0.85;;;0.73;;
7503;SDS011;3793;48.136;11.536;2022-09-09T13:19:33;3.00;;;1.08;;
7503;SDS011;3793;48.136;11.536;2022-09-09T13:22:10;1.55;;;0.90;;
7503;SDS011;3793;48.136;11.536;2022-09-09T13:24:39;2.33;;;1.00;;
7503;SDS011;3793;48.136;11.536;2022-09-09T13:27:19;1.17;;;0.88;;
7503;SDS011;3793;48.136;11.536;2022-09-09T13:29:50;2.60;;;0.90;;
7503;SDS011;3793;48.136;11.536;2022-09-09T13:32:17;2.50;;;1.35;;
7503;SDS011;3793;48.136;11.536;2022-09-09T13:34:50;5.68;;;1.25;;
7503;SDS011;3793;48.136;11.536;2022-09-09T13:37:18;1.50;;;1.00;;
7503;SDS011;3793;48.136;11.536;2022-09-09T13:39:51;5.15;;;1.30;;
7503;SDS011;3793;48.136;11.536;2022-09-09T13:42:22;2.28;;;0.90;;
7503;SDS011;3793;48.136;11.536;2022-09-09T13:44:50;3.67;;;0.70;;
7503;SDS011;3793;48.136;11.536;2022-09-09T13:47:18;0.60;;;0.60;;
7503;SDS011;3793;48.136;11.536;2022-09-09T13:49:45;1.17;;;0.73;;
7503;SDS011;3793;48.136;11.536;2022-09-09T13:52:12;1.30;;;0.77;;
7503;SDS011;3793;48.136;11.536;2022-09-09T13:54:41;1.95;;;0.80;;
7503;SDS011;3793;48.136;11.536;2022-09-09T13:57:15;1.50;;;0.70;;
7503;SDS011;3793;48.136;11.536;2022-09-09T13:59:43;0.77;;;0.70;;
7503;SDS011;3793;48.136;11.536;2022-09-09T14:02:09;1.25;;;0.90;;
7503;SDS011;3793;48.136;11.536;2022-09-09T14:04:36;1.98;;;1.05;;
7503;SDS011;3793;48.136;11.536;2022-09-09T14:07:03;1.58;;;1.00;;
7503;SDS011;3793;48.136;11.536;2022-09-09T14:09:29;1.33;;;0.77;;
7503;SDS011;3793;48.136;11.536;2022-09-09T14:11:56;3.40;;;1.25;;
7503;SDS011;3793;48.136;11.536;2022-09-09T14:14:24;2.75;;;0.80;;
7503;SDS011;3793;48.136;11.536;2022-09-09T14:16:51;2.00;;;0.90;;
7503;SDS011;3793;48.136;11.536;2022-09-09T14:19:23;1.55;;;0.70;;
7503;SDS011;3793;48.136;11.536;2022-09-09T14:21:50;1.80;;;1.10;;
7503;SDS011;3793;48.136;11.536;2022-09-09T14:24:16;2.97;;;1.27;;
7503;SDS011;3793;48.136;11.536;2022-09-09T14:26:44;4.00;;;1.15;;
7503;SDS011;3793;48.136;11.536;2022-09-09T14:29:11;0.82;;;0.70;;
7503;SDS011;3793;48.136;11.536;2022-09-09T14:31:39;1.60;;;1.08;;
7503;SDS011;3793;48.136;11.536;2022-09-09T14:34:06;1.52;;;0.95;;
7503;SDS011;3793;48.136;11.536;2022-09-09T14:36:35;1.85;;;1.10;;
7503;SDS011;3793;48.136;11.536;2022-09-09T14:39:01;1.48;;;0.82;;
7503;SDS011;3793;48.136;11.536;2022-09-09T14:41:29;3.85;;;0.98;;
7503;SDS011;3793;48.136;11.536;2022-09-09T14:43:55;3.05;;;1.40;;
7503;SDS011;3793;48.136;11.536;2022-09-09T14:46:25;2.92;;;1.10;;
7503;SDS011;3793;48.136;11.536;2022-09-09T14:48:56;2.38;;;0.95;;
7503;SDS011;3793;48.136;11.536;2022-09-09T14:51:23;1.65;;;1.00;;
7503;SDS011;3793;48.136;11.536;2022-09-09T14:53:50;1.92;;;1.15;;
7503;SDS011;3793;48.136;11.536;2022-09-09T14:56:18;4.25;;;1.20;;
7503;SDS011;3793;48.136;11.536;2022-09-09T14:58:46;2.55;;;1.27;;
7503;SDS011;3793;48.136;11.536;2022-09-09T15:01:14;2.13;;;1.10;;
7503;SDS011;3793;48.136;11.536;2022-09-09T15:03:41;1.98;;;1.13;;
7503;SDS011;3793;48.136;11.536;2022-09-09T15:06:11;2.47;;;1.08;;
7503;SDS011;3793;48.136;11.536;2022-09-09T15:08:38;2.13;;;1.20;;
7503;SDS011;3793;48.136;11.536;2022-09-09T15:11:05;1.98;;;1.00;;
7503;SDS011;3793;48.136;11.536;2022-09-09T15:13:32;1.35;;;0.80;;
7503;SDS011;3793;48.136;11.536;2022-09-09T15:16:03;1.77;;;1.10;;
7503;SDS011;3793;48.136;11.536;2022-09-09T15:18:29;1.10;;;1.00;;
7503;SDS011;3793;48.136;11.536;2022-09-09T15:20:56;1.90;;;1.00;;
7503;SDS011;3793;48.136;11.536;2022-09-09T15:23:24;5.30;;;1.10;;
7503;SDS011;3793;48.136;11.536;2022-09-09T15:25:51;1.05;;;0.80;;
7503;SDS011;3793;48.136;11.536;2022-09-09T15:28:18;2.47;;;1.00;;
7503;SDS011;3793;48.136;11.536;2022-09-09T15:30:46;2.58;;;1.20;;
7503;SDS011;3793;48.136;11.536;2022-09-09T15:33:13;2.05;;;1.30;;
7503;SDS011;3793;48.136;11.536;2022-09-09T15:35:39;3.75;;;0.93;;
7503;SDS011;3793;48.136;11.536;2022-09-09T15:38:06;2.92;;;0.90;;
7503;SDS011;3793;48.136;11.536;2022-09-09T15:40:34;1.85;;;1.00;;
7503;SDS011;3793;48.136;11.536;2022-09-09T15:43:00;1.50;;;1.05;;
7503;SDS011;3793;48.136;11.536;2022-09-09T15:45:30;2.28;;;1.50;;
7503;SDS011;3793;48.136;11.536;2022-09-09T15:47:57;2.08;;;0.88;;
7503;SDS011;3793;48.136;11.536;2022-09-09T15:50:24;2.70;;;1.00;;
7503;SDS011;3793;48.136;11.536;2022-09-09T15:52:50;1.17;;;0.90;;
7503;SDS011;3793;48.136;11.536;2022-09-09T15:55:17;1.40;;;0.80;;
7503;SDS011;3793;48.136;11.536;2022-09-09T15:57:46;1.27;;;0.70;;
7503;SDS011;3793;48.136;11.536;2022-09-09T16:00:13;1.52;;;1.00;;
7503;SDS011;3793;48.136;11.536;2022-09-09T16:02:40;2.00;;;0.98;;
7503;SDS011;3793;48.136;11.536;2022-09-09T16:05:07;2.15;;;1.00;;
7503;SDS011;3793;48.136;11.536;2022-09-09T16:07:34;5.72;;;1.38;;
7503;SDS011;3793;48.136;11.536;2022-09-09T16:10:01;2.25;;;1.05;;
7503;SDS011;3793;48.136;11.536;2022-09-09T16:12:27;6.72;;;1.30;;